Ville De Bordeaux — FZCE — position and weather

sailwx.info

Track history (hours):
 
Tides and Currents Weather Stations Pressure Air Temp Water Temp Dewpoint Dewpoint Depression Visibility Wind Speed Wind Dir Waves Ship Positions

Ville De Bordeaux

Last reported at 2017-Jan-14 20:07 UTC. Time now 2017-Jan-18 04:15 UTC.
Position N 38°18' W 009°60'.

Length 150 m; beam 24 m.

Type: Ship. MMSI: 228084000.

Date/timePositionNaut miles runAvg speedWind from/ knotsBaromVisibWave heightAir tempDewpointWater temp
2017-Jan-14 20:07N 38°18' W 009°60'916.6
2017-Jan-14 19:33N 38°27' W 010°02'1716.3
2017-Jan-14 18:33N 38°43' W 010°07'1616.4
2017-Jan-14 17:33N 38°59' W 010°07'1616.2
2017-Jan-14 16:33N 39°15' W 010°07'55213.5
2017-Jan-12 23:33N 46°51' W 003°00'4310.7
2017-Jan-12 19:32N 47°17' W 002°10'0 0.0
2017-Jan-12 18:32N 47°17' W 002°10'0 0.0
2017-Jan-12 17:32N 47°17' W 002°10'0 0.0
2017-Jan-12 16:20N 47°17' W 002°10'0 0.0
2017-Jan-12 15:26N 47°17' W 002°10'0 0.0
2017-Jan-12 13:05N 47°17' W 002°10'0 0.0
2017-Jan-12 08:08N 47°17' W 002°10'0 0.0
2017-Jan-12 07:23N 47°17' W 002°10'0 0.0
2017-Jan-12 06:32N 47°17' W 002°10'7 7.6
2017-Jan-12 05:33N 47°12' W 002°17'1212.4
2017-Jan-12 04:34N 47°03' W 002°30'1515.0
2017-Jan-12 03:33N 46°55' W 002°49'1914.8
2017-Jan-12 02:18N 46°44' W 003°11'1215.1
2017-Jan-12 01:30N 46°37' W 003°25'1515.2
2017-Jan-12 00:30N 46°28' W 003°43'3 2.6
2017-Jan-11 23:22N 46°26' W 003°46'1315.5
2017-Jan-11 22:33N 46°18' W 004°01'49613.0
2017-Jan-10 08:23N 39°14' W 009°51'1214.2
2017-Jan-10 07:33N 39°02' W 009°52'1514.5
2017-Jan-10 06:33N 38°48' W 009°53'1514.9
2017-Jan-10 05:33N 38°33' W 009°49'2517.2
2017-Jan-10 04:06N 38°09' W 009°41'3017.6
2017-Jan-10 02:25N 37°40' W 009°33'12915.5
2017-Jan-09 18:05N 36°37' W 007°12'87 4.9
2017-Jan-09 00:20N 35°57' W 005°35'9 1.0
2017-Jan-08 15:33N 35°59' W 005°25'  
Track history (hours):
 
Tides and Currents Weather Stations Pressure Air Temp Water Temp Dewpoint Dewpoint Depression Visibility Wind Speed Wind Dir Waves Ship Positions

Ville De Bordeaux

Last reported at 2017-Jan-14 20:07 UTC. Time now 2017-Jan-18 04:15 UTC.
Position N 38°18' W 009°60'.

Length 150 m; beam 24 m.

Type: Ship. MMSI: 228084000.

Date/timePositionNaut miles runAvg speedWind from/ knotsBaromVisibWave heightAir tempDewpointWater temp
2017-Jan-14 20:07N 38°18' W 009°60'916.6
2017-Jan-14 19:33N 38°27' W 010°02'1716.3
2017-Jan-14 18:33N 38°43' W 010°07'1616.4
2017-Jan-14 17:33N 38°59' W 010°07'1616.2
2017-Jan-14 16:33N 39°15' W 010°07'55213.5
2017-Jan-12 23:33N 46°51' W 003°00'4310.7
2017-Jan-12 19:32N 47°17' W 002°10'0 0.0
2017-Jan-12 18:32N 47°17' W 002°10'0 0.0
2017-Jan-12 17:32N 47°17' W 002°10'0 0.0
2017-Jan-12 16:20N 47°17' W 002°10'0 0.0
2017-Jan-12 15:26N 47°17' W 002°10'0 0.0
2017-Jan-12 13:05N 47°17' W 002°10'0 0.0
2017-Jan-12 08:08N 47°17' W 002°10'0 0.0
2017-Jan-12 07:23N 47°17' W 002°10'0 0.0
2017-Jan-12 06:32N 47°17' W 002°10'7 7.6
2017-Jan-12 05:33N 47°12' W 002°17'1212.4
2017-Jan-12 04:34N 47°03' W 002°30'1515.0
2017-Jan-12 03:33N 46°55' W 002°49'1914.8
2017-Jan-12 02:18N 46°44' W 003°11'1215.1
2017-Jan-12 01:30N 46°37' W 003°25'1515.2
2017-Jan-12 00:30N 46°28' W 003°43'3 2.6
2017-Jan-11 23:22N 46°26' W 003°46'1315.5
2017-Jan-11 22:33N 46°18' W 004°01'49613.0
2017-Jan-10 08:23N 39°14' W 009°51'1214.2
2017-Jan-10 07:33N 39°02' W 009°52'1514.5
2017-Jan-10 06:33N 38°48' W 009°53'1514.9
2017-Jan-10 05:33N 38°33' W 009°49'2517.2
2017-Jan-10 04:06N 38°09' W 009°41'3017.6
2017-Jan-10 02:25N 37°40' W 009°33'12915.5
2017-Jan-09 18:05N 36°37' W 007°12'87 4.9
2017-Jan-09 00:20N 35°57' W 005°35'9 1.0
2017-Jan-08 15:33N 35°59' W 005°25'  

Dump ship's entire track history